sensor_id;sensor_type;location;lat;lon;timestamp;P1;durP1;ratioP1;P2;durP2;ratioP2
289;SDS011;13193;48.874;9.086;2022-11-11T00:02:03;26.83;;;10.83;;
289;SDS011;13193;48.874;9.086;2022-11-11T00:04:29;34.70;;;12.40;;
289;SDS011;13193;48.874;9.086;2022-11-11T00:06:54;21.67;;;10.07;;
289;SDS011;13193;48.874;9.086;2022-11-11T00:09:20;27.13;;;10.83;;
289;SDS011;13193;48.874;9.086;2022-11-11T00:11:45;19.70;;;10.33;;
289;SDS011;13193;48.874;9.086;2022-11-11T00:14:11;23.80;;;10.00;;
289;SDS011;13193;48.874;9.086;2022-11-11T00:16:37;19.13;;;9.70;;
289;SDS011;13193;48.874;9.086;2022-11-11T00:19:21;21.57;;;9.13;;
289;SDS011;13193;48.874;9.086;2022-11-11T00:22:10;24.73;;;9.77;;
289;SDS011;13193;48.874;9.086;2022-11-11T00:25:03;21.80;;;8.60;;
289;SDS011;13193;48.874;9.086;2022-11-11T00:27:32;17.60;;;8.50;;
289;SDS011;13193;48.874;9.086;2022-11-11T00:29:58;26.30;;;10.63;;
289;SDS011;13193;48.874;9.086;2022-11-11T00:32:24;21.40;;;8.70;;
289;SDS011;13193;48.874;9.086;2022-11-11T00:34:55;19.37;;;8.80;;
289;SDS011;13193;48.874;9.086;2022-11-11T00:37:41;19.23;;;8.53;;
289;SDS011;13193;48.874;9.086;2022-11-11T00:40:09;16.30;;;7.10;;
289;SDS011;13193;48.874;9.086;2022-11-11T00:42:36;16.43;;;8.13;;
289;SDS011;13193;48.874;9.086;2022-11-11T00:45:02;15.10;;;6.80;;
289;SDS011;13193;48.874;9.086;2022-11-11T00:47:28;11.40;;;6.20;;
289;SDS011;13193;48.874;9.086;2022-11-11T00:50:13;27.07;;;7.30;;
289;SDS011;13193;48.874;9.086;2022-11-11T00:52:59;21.07;;;6.57;;
289;SDS011;13193;48.874;9.086;2022-11-11T00:55:26;15.93;;;6.47;;
289;SDS011;13193;48.874;9.086;2022-11-11T00:57:51;26.57;;;8.40;;
289;SDS011;13193;48.874;9.086;2022-11-11T01:00:17;17.57;;;6.93;;
289;SDS011;13193;48.874;9.086;2022-11-11T01:02:43;17.83;;;6.40;;
289;SDS011;13193;48.874;9.086;2022-11-11T01:05:08;13.00;;;6.70;;
289;SDS011;13193;48.874;9.086;2022-11-11T01:07:34;15.77;;;6.93;;
289;SDS011;13193;48.874;9.086;2022-11-11T01:09:59;13.33;;;6.03;;
289;SDS011;13193;48.874;9.086;2022-11-11T01:12:25;18.37;;;7.70;;
289;SDS011;13193;48.874;9.086;2022-11-11T01:14:50;17.17;;;6.90;;
289;SDS011;13193;48.874;9.086;2022-11-11T01:17:17;12.63;;;7.00;;
289;SDS011;13193;48.874;9.086;2022-11-11T01:19:43;13.70;;;5.57;;
289;SDS011;13193;48.874;9.086;2022-11-11T01:22:09;14.30;;;5.87;;
289;SDS011;13193;48.874;9.086;2022-11-11T01:24:35;18.93;;;8.20;;
289;SDS011;13193;48.874;9.086;2022-11-11T01:27:02;12.00;;;6.37;;
289;SDS011;13193;48.874;9.086;2022-11-11T01:29:28;19.50;;;6.70;;
289;SDS011;13193;48.874;9.086;2022-11-11T01:31:53;14.30;;;6.37;;
289;SDS011;13193;48.874;9.086;2022-11-11T01:34:19;27.33;;;6.17;;
289;SDS011;13193;48.874;9.086;2022-11-11T01:36:44;16.17;;;6.10;;
289;SDS011;13193;48.874;9.086;2022-11-11T01:39:10;13.83;;;6.70;;
289;SDS011;13193;48.874;9.086;2022-11-11T01:41:36;22.70;;;6.93;;
289;SDS011;13193;48.874;9.086;2022-11-11T01:59:52;22.00;;;6.50;;
289;SDS011;13193;48.874;9.086;2022-11-11T02:02:41;21.10;;;6.60;;
289;SDS011;13193;48.874;9.086;2022-11-11T02:05:20;11.90;;;5.60;;
289;SDS011;13193;48.874;9.086;2022-11-11T02:08:07;14.80;;;6.93;;
289;SDS011;13193;48.874;9.086;2022-11-11T02:10:41;15.97;;;6.53;;
289;SDS011;13193;48.874;9.086;2022-11-11T02:13:11;18.57;;;7.03;;
289;SDS011;13193;48.874;9.086;2022-11-11T02:15:57;20.77;;;5.60;;
289;SDS011;13193;48.874;9.086;2022-11-11T02:18:22;17.30;;;6.30;;
289;SDS011;13193;48.874;9.086;2022-11-11T02:20:49;23.80;;;6.30;;
289;SDS011;13193;48.874;9.086;2022-11-11T02:23:29;16.33;;;6.50;;
289;SDS011;13193;48.874;9.086;2022-11-11T02:26:06;19.30;;;7.47;;
289;SDS011;13193;48.874;9.086;2022-11-11T02:28:35;13.80;;;5.70;;
289;SDS011;13193;48.874;9.086;2022-11-11T02:31:01;14.07;;;7.07;;
289;SDS011;13193;48.874;9.086;2022-11-11T02:33:27;10.90;;;5.63;;
289;SDS011;13193;48.874;9.086;2022-11-11T02:35:54;13.90;;;6.70;;
289;SDS011;13193;48.874;9.086;2022-11-11T02:38:25;13.13;;;5.87;;
289;SDS011;13193;48.874;9.086;2022-11-11T02:40:51;28.60;;;7.23;;
289;SDS011;13193;48.874;9.086;2022-11-11T02:43:35;12.57;;;7.13;;
289;SDS011;13193;48.874;9.086;2022-11-11T02:46:01;10.50;;;5.80;;
289;SDS011;13193;48.874;9.086;2022-11-11T02:48:28;19.73;;;5.30;;
289;SDS011;13193;48.874;9.086;2022-11-11T02:50:55;13.83;;;5.93;;
289;SDS011;13193;48.874;9.086;2022-11-11T02:53:20;16.30;;;7.00;;
289;SDS011;13193;48.874;9.086;2022-11-11T02:55:46;21.20;;;5.53;;
289;SDS011;13193;48.874;9.086;2022-11-11T02:58:12;13.00;;;6.37;;
289;SDS011;13193;48.874;9.086;2022-11-11T03:00:39;12.90;;;5.50;;
289;SDS011;13193;48.874;9.086;2022-11-11T03:03:06;21.30;;;5.70;;
289;SDS011;13193;48.874;9.086;2022-11-11T03:05:32;11.40;;;6.00;;
289;SDS011;13193;48.874;9.086;2022-11-11T03:07:58;15.67;;;6.20;;
289;SDS011;13193;48.874;9.086;2022-11-11T03:10:23;10.90;;;5.70;;
289;SDS011;13193;48.874;9.086;2022-11-11T03:12:49;11.83;;;5.43;;
289;SDS011;13193;48.874;9.086;2022-11-11T03:15:14;14.40;;;6.20;;
289;SDS011;13193;48.874;9.086;2022-11-11T03:17:40;17.10;;;6.90;;
289;SDS011;13193;48.874;9.086;2022-11-11T03:20:06;9.00;;;5.80;;
289;SDS011;13193;48.874;9.086;2022-11-11T03:23:00;19.27;;;7.23;;
289;SDS011;13193;48.874;9.086;2022-11-11T03:25:33;17.50;;;5.70;;
289;SDS011;13193;48.874;9.086;2022-11-11T03:28:06;12.10;;;6.10;;
289;SDS011;13193;48.874;9.086;2022-11-11T03:30:34;11.53;;;6.40;;
289;SDS011;13193;48.874;9.086;2022-11-11T03:33:00;11.90;;;7.10;;
289;SDS011;13193;48.874;9.086;2022-11-11T03:35:26;13.80;;;6.00;;
289;SDS011;13193;48.874;9.086;2022-11-11T03:37:52;13.20;;;6.67;;
289;SDS011;13193;48.874;9.086;2022-11-11T03:40:37;18.57;;;7.90;;
289;SDS011;13193;48.874;9.086;2022-11-11T03:43:03;16.23;;;7.30;;
289;SDS011;13193;48.874;9.086;2022-11-11T03:45:28;14.60;;;7.10;;
289;SDS011;13193;48.874;9.086;2022-11-11T03:47:54;16.77;;;6.17;;
289;SDS011;13193;48.874;9.086;2022-11-11T03:50:20;21.90;;;6.60;;
289;SDS011;13193;48.874;9.086;2022-11-11T03:52:46;17.00;;;7.47;;
289;SDS011;13193;48.874;9.086;2022-11-11T03:55:12;16.17;;;6.87;;
289;SDS011;13193;48.874;9.086;2022-11-11T03:57:42;9.33;;;5.43;;
289;SDS011;13193;48.874;9.086;2022-11-11T04:00:09;13.97;;;6.07;;
289;SDS011;13193;48.874;9.086;2022-11-11T04:02:39;12.53;;;6.30;;
289;SDS011;13193;48.874;9.086;2022-11-11T04:05:23;20.10;;;6.63;;
289;SDS011;13193;48.874;9.086;2022-11-11T04:08:10;10.37;;;5.87;;
289;SDS011;13193;48.874;9.086;2022-11-11T04:10:56;13.23;;;6.17;;
289;SDS011;13193;48.874;9.086;2022-11-11T04:13:24;13.20;;;6.40;;
289;SDS011;13193;48.874;9.086;2022-11-11T04:16:10;18.77;;;7.07;;
289;SDS011;13193;48.874;9.086;2022-11-11T04:18:36;15.03;;;6.53;;
289;SDS011;13193;48.874;9.086;2022-11-11T04:21:21;13.47;;;6.93;;
289;SDS011;13193;48.874;9.086;2022-11-11T04:24:06;15.50;;;7.23;;
289;SDS011;13193;48.874;9.086;2022-11-11T04:26:52;12.03;;;5.73;;
289;SDS011;13193;48.874;9.086;2022-11-11T04:29:19;15.30;;;7.70;;
289;SDS011;13193;48.874;9.086;2022-11-11T04:31:55;19.20;;;7.30;;
289;SDS011;13193;48.874;9.086;2022-11-11T04:34:41;12.20;;;5.70;;
289;SDS011;13193;48.874;9.086;2022-11-11T04:37:07;12.60;;;6.73;;
289;SDS011;13193;48.874;9.086;2022-11-11T04:39:34;18.23;;;7.40;;
289;SDS011;13193;48.874;9.086;2022-11-11T04:42:19;15.37;;;7.30;;
289;SDS011;13193;48.874;9.086;2022-11-11T04:44:45;14.57;;;6.20;;
289;SDS011;13193;48.874;9.086;2022-11-11T04:47:29;14.37;;;7.33;;
289;SDS011;13193;48.874;9.086;2022-11-11T04:49:54;17.97;;;7.37;;
289;SDS011;13193;48.874;9.086;2022-11-11T04:52:20;27.73;;;8.77;;
289;SDS011;13193;48.874;9.086;2022-11-11T04:54:55;17.20;;;7.37;;
289;SDS011;13193;48.874;9.086;2022-11-11T04:57:46;19.27;;;7.80;;
289;SDS011;13193;48.874;9.086;2022-11-11T05:00:13;9.50;;;5.90;;
289;SDS011;13193;48.874;9.086;2022-11-11T05:02:41;15.90;;;8.00;;
289;SDS011;13193;48.874;9.086;2022-11-11T05:05:26;14.40;;;7.03;;
289;SDS011;13193;48.874;9.086;2022-11-11T05:07:52;23.73;;;7.80;;
289;SDS011;13193;48.874;9.086;2022-11-11T05:10:37;19.67;;;7.77;;
289;SDS011;13193;48.874;9.086;2022-11-11T05:13:02;24.50;;;9.20;;
289;SDS011;13193;48.874;9.086;2022-11-11T05:15:48;17.40;;;8.27;;
289;SDS011;13193;48.874;9.086;2022-11-11T05:18:32;13.77;;;8.13;;
289;SDS011;13193;48.874;9.086;2022-11-11T05:21:22;26.30;;;9.93;;
289;SDS011;13193;48.874;9.086;2022-11-11T05:23:51;23.20;;;9.30;;
289;SDS011;13193;48.874;9.086;2022-11-11T05:26:35;18.93;;;9.43;;
289;SDS011;13193;48.874;9.086;2022-11-11T05:29:01;17.60;;;8.73;;
289;SDS011;13193;48.874;9.086;2022-11-11T05:31:27;18.33;;;10.03;;
289;SDS011;13193;48.874;9.086;2022-11-11T05:33:54;18.13;;;9.20;;
289;SDS011;13193;48.874;9.086;2022-11-11T05:36:19;18.63;;;9.60;;
289;SDS011;13193;48.874;9.086;2022-11-11T05:38:45;26.60;;;9.47;;
289;SDS011;13193;48.874;9.086;2022-11-11T05:41:10;20.13;;;8.97;;
289;SDS011;13193;48.874;9.086;2022-11-11T05:43:36;18.53;;;8.63;;
289;SDS011;13193;48.874;9.086;2022-11-11T05:46:01;25.57;;;9.47;;
289;SDS011;13193;48.874;9.086;2022-11-11T05:48:29;28.27;;;8.53;;
289;SDS011;13193;48.874;9.086;2022-11-11T05:50:56;18.73;;;8.70;;
289;SDS011;13193;48.874;9.086;2022-11-11T05:53:23;17.33;;;7.40;;
289;SDS011;13193;48.874;9.086;2022-11-11T05:55:49;17.80;;;7.10;;
289;SDS011;13193;48.874;9.086;2022-11-11T05:58:18;18.87;;;9.23;;
289;SDS011;13193;48.874;9.086;2022-11-11T06:00:44;18.00;;;7.87;;
289;SDS011;13193;48.874;9.086;2022-11-11T06:03:10;21.43;;;9.33;;
289;SDS011;13193;48.874;9.086;2022-11-11T06:05:36;17.10;;;9.20;;
289;SDS011;13193;48.874;9.086;2022-11-11T06:08:01;14.23;;;8.57;;
289;SDS011;13193;48.874;9.086;2022-11-11T06:10:27;21.37;;;8.70;;
289;SDS011;13193;48.874;9.086;2022-11-11T06:12:56;24.03;;;9.60;;
289;SDS011;13193;48.874;9.086;2022-11-11T06:15:32;17.23;;;9.00;;
289;SDS011;13193;48.874;9.086;2022-11-11T06:17:59;17.73;;;8.40;;
289;SDS011;13193;48.874;9.086;2022-11-11T06:20:25;28.57;;;10.77;;
289;SDS011;13193;48.874;9.086;2022-11-11T06:22:51;23.43;;;11.20;;
289;SDS011;13193;48.874;9.086;2022-11-11T06:25:20;20.17;;;9.10;;
289;SDS011;13193;48.874;9.086;2022-11-11T06:28:11;23.87;;;10.10;;
289;SDS011;13193;48.874;9.086;2022-11-11T06:30:37;17.83;;;9.13;;
289;SDS011;13193;48.874;9.086;2022-11-11T06:33:04;20.00;;;9.90;;
289;SDS011;13193;48.874;9.086;2022-11-11T06:35:32;25.53;;;11.00;;
289;SDS011;13193;48.874;9.086;2022-11-11T06:38:01;22.47;;;8.60;;
289;SDS011;13193;48.874;9.086;2022-11-11T06:40:28;19.60;;;10.03;;
289;SDS011;13193;48.874;9.086;2022-11-11T06:42:55;27.20;;;10.20;;
289;SDS011;13193;48.874;9.086;2022-11-11T06:45:21;21.97;;;10.00;;
289;SDS011;13193;48.874;9.086;2022-11-11T06:47:48;29.67;;;10.33;;
289;SDS011;13193;48.874;9.086;2022-11-11T06:50:14;23.73;;;9.80;;
289;SDS011;13193;48.874;9.086;2022-11-11T06:52:39;17.57;;;7.73;;
289;SDS011;13193;48.874;9.086;2022-11-11T06:55:05;23.60;;;9.07;;
289;SDS011;13193;48.874;9.086;2022-11-11T06:57:31;20.50;;;8.97;;
289;SDS011;13193;48.874;9.086;2022-11-11T06:59:57;19.43;;;8.50;;
289;SDS011;13193;48.874;9.086;2022-11-11T07:02:22;19.63;;;8.03;;
289;SDS011;13193;48.874;9.086;2022-11-11T07:04:48;11.37;;;6.93;;
289;SDS011;13193;48.874;9.086;2022-11-11T07:07:14;19.13;;;8.70;;
289;SDS011;13193;48.874;9.086;2022-11-11T07:09:41;18.00;;;8.20;;
289;SDS011;13193;48.874;9.086;2022-11-11T07:12:07;17.20;;;8.30;;
289;SDS011;13193;48.874;9.086;2022-11-11T07:14:33;17.40;;;9.07;;
289;SDS011;13193;48.874;9.086;2022-11-11T07:16:59;18.37;;;10.13;;
289;SDS011;13193;48.874;9.086;2022-11-11T07:19:25;16.37;;;9.63;;
289;SDS011;13193;48.874;9.086;2022-11-11T07:21:51;33.70;;;12.40;;
289;SDS011;13193;48.874;9.086;2022-11-11T07:24:16;21.17;;;9.33;;
289;SDS011;13193;48.874;9.086;2022-11-11T07:26:42;23.63;;;10.03;;
289;SDS011;13193;48.874;9.086;2022-11-11T07:29:07;25.90;;;9.87;;
289;SDS011;13193;48.874;9.086;2022-11-11T07:31:33;25.87;;;9.80;;
289;SDS011;13193;48.874;9.086;2022-11-11T07:33:59;20.83;;;8.63;;
289;SDS011;13193;48.874;9.086;2022-11-11T07:36:24;20.50;;;9.40;;
289;SDS011;13193;48.874;9.086;2022-11-11T07:38:50;18.80;;;9.77;;
289;SDS011;13193;48.874;9.086;2022-11-11T07:41:16;21.33;;;9.97;;
289;SDS011;13193;48.874;9.086;2022-11-11T07:43:41;23.80;;;10.30;;
289;SDS011;13193;48.874;9.086;2022-11-11T07:46:07;18.53;;;8.93;;
289;SDS011;13193;48.874;9.086;2022-11-11T07:48:33;23.53;;;10.53;;
289;SDS011;13193;48.874;9.086;2022-11-11T07:50:58;17.73;;;9.93;;
289;SDS011;13193;48.874;9.086;2022-11-11T07:53:24;18.83;;;9.73;;
289;SDS011;13193;48.874;9.086;2022-11-11T07:55:52;21.40;;;9.80;;
289;SDS011;13193;48.874;9.086;2022-11-11T07:58:18;23.90;;;9.70;;
289;SDS011;13193;48.874;9.086;2022-11-11T08:00:44;18.60;;;8.70;;
289;SDS011;13193;48.874;9.086;2022-11-11T08:03:10;20.40;;;9.40;;
289;SDS011;13193;48.874;9.086;2022-11-11T08:05:35;18.27;;;8.50;;
289;SDS011;13193;48.874;9.086;2022-11-11T08:08:04;15.97;;;8.57;;
289;SDS011;13193;48.874;9.086;2022-11-11T08:10:31;28.67;;;8.50;;
289;SDS011;13193;48.874;9.086;2022-11-11T08:12:58;14.50;;;7.73;;
289;SDS011;13193;48.874;9.086;2022-11-11T08:15:42;23.20;;;9.33;;
289;SDS011;13193;48.874;9.086;2022-11-11T08:18:08;18.33;;;8.90;;
289;SDS011;13193;48.874;9.086;2022-11-11T08:20:34;20.60;;;9.53;;
289;SDS011;13193;48.874;9.086;2022-11-11T08:23:00;15.07;;;8.97;;
289;SDS011;13193;48.874;9.086;2022-11-11T08:25:28;18.63;;;9.23;;
289;SDS011;13193;48.874;9.086;2022-11-11T08:28:01;18.47;;;8.63;;
289;SDS011;13193;48.874;9.086;2022-11-11T08:30:29;20.90;;;9.17;;
289;SDS011;13193;48.874;9.086;2022-11-11T08:32:56;23.93;;;9.70;;
289;SDS011;13193;48.874;9.086;2022-11-11T08:35:22;17.57;;;8.30;;
289;SDS011;13193;48.874;9.086;2022-11-11T08:37:48;25.90;;;11.30;;
289;SDS011;13193;48.874;9.086;2022-11-11T08:40:14;22.70;;;10.80;;
289;SDS011;13193;48.874;9.086;2022-11-11T08:42:40;28.83;;;11.07;;
289;SDS011;13193;48.874;9.086;2022-11-11T08:45:06;16.00;;;9.53;;
289;SDS011;13193;48.874;9.086;2022-11-11T08:47:33;21.97;;;10.23;;
289;SDS011;13193;48.874;9.086;2022-11-11T08:49:59;23.07;;;9.70;;
289;SDS011;13193;48.874;9.086;2022-11-11T08:52:25;35.33;;;13.70;;
289;SDS011;13193;48.874;9.086;2022-11-11T08:54:51;33.77;;;11.60;;
289;SDS011;13193;48.874;9.086;2022-11-11T08:57:16;16.30;;;8.63;;
289;SDS011;13193;48.874;9.086;2022-11-11T08:59:45;22.57;;;9.03;;
289;SDS011;13193;48.874;9.086;2022-11-11T09:02:11;15.57;;;8.77;;
289;SDS011;13193;48.874;9.086;2022-11-11T09:04:38;20.20;;;10.00;;
289;SDS011;13193;48.874;9.086;2022-11-11T09:07:04;23.77;;;10.20;;
289;SDS011;13193;48.874;9.086;2022-11-11T09:09:31;17.83;;;9.30;;
289;SDS011;13193;48.874;9.086;2022-11-11T09:11:56;27.00;;;11.33;;
289;SDS011;13193;48.874;9.086;2022-11-11T09:14:22;19.37;;;9.90;;
289;SDS011;13193;48.874;9.086;2022-11-11T09:16:48;28.57;;;10.50;;
289;SDS011;13193;48.874;9.086;2022-11-11T09:19:13;18.47;;;9.60;;
289;SDS011;13193;48.874;9.086;2022-11-11T09:21:39;21.83;;;11.50;;
289;SDS011;13193;48.874;9.086;2022-11-11T09:24:05;18.20;;;10.20;;
289;SDS011;13193;48.874;9.086;2022-11-11T09:26:30;14.50;;;8.20;;
289;SDS011;13193;48.874;9.086;2022-11-11T09:28:56;22.27;;;10.40;;
289;SDS011;13193;48.874;9.086;2022-11-11T09:31:22;23.50;;;9.80;;
289;SDS011;13193;48.874;9.086;2022-11-11T09:33:48;39.53;;;11.00;;
289;SDS011;13193;48.874;9.086;2022-11-11T09:36:14;19.37;;;9.57;;
289;SDS011;13193;48.874;9.086;2022-11-11T09:38:40;17.10;;;10.97;;
289;SDS011;13193;48.874;9.086;2022-11-11T09:41:19;14.60;;;9.53;;
289;SDS011;13193;48.874;9.086;2022-11-11T09:49:09;19.50;;;10.13;;
289;SDS011;13193;48.874;9.086;2022-11-11T09:51:52;14.73;;;8.80;;
289;SDS011;13193;48.874;9.086;2022-11-11T09:54:39;18.33;;;9.90;;
289;SDS011;13193;48.874;9.086;2022-11-11T09:57:11;17.17;;;9.30;;
289;SDS011;13193;48.874;9.086;2022-11-11T09:59:46;13.83;;;7.70;;
289;SDS011;13193;48.874;9.086;2022-11-11T10:02:18;17.20;;;7.90;;
289;SDS011;13193;48.874;9.086;2022-11-11T10:04:56;24.63;;;7.53;;
289;SDS011;13193;48.874;9.086;2022-11-11T10:13:15;13.63;;;7.77;;
289;SDS011;13193;48.874;9.086;2022-11-11T10:16:11;19.87;;;8.20;;
289;SDS011;13193;48.874;9.086;2022-11-11T10:22:00;12.77;;;7.33;;
289;SDS011;13193;48.874;9.086;2022-11-11T10:24:34;12.83;;;6.37;;
289;SDS011;13193;48.874;9.086;2022-11-11T10:27:06;14.10;;;6.87;;
289;SDS011;13193;48.874;9.086;2022-11-11T10:29:46;14.03;;;6.97;;
289;SDS011;13193;48.874;9.086;2022-11-11T10:32:27;15.87;;;6.67;;
289;SDS011;13193;48.874;9.086;2022-11-11T10:34:59;15.73;;;8.37;;
289;SDS011;13193;48.874;9.086;2022-11-11T10:37:43;13.97;;;8.53;;
289;SDS011;13193;48.874;9.086;2022-11-11T10:42:49;12.10;;;7.50;;
289;SDS011;13193;48.874;9.086;2022-11-11T10:45:26;21.93;;;8.00;;
289;SDS011;13193;48.874;9.086;2022-11-11T10:48:12;16.73;;;9.10;;
289;SDS011;13193;48.874;9.086;2022-11-11T10:50:46;16.63;;;8.37;;
289;SDS011;13193;48.874;9.086;2022-11-11T10:53:24;21.77;;;8.07;;
289;SDS011;13193;48.874;9.086;2022-11-11T10:59:08;20.43;;;8.20;;
289;SDS011;13193;48.874;9.086;2022-11-11T11:01:40;24.60;;;8.63;;
289;SDS011;13193;48.874;9.086;2022-11-11T11:04:14;14.10;;;7.10;;
289;SDS011;13193;48.874;9.086;2022-11-11T11:07:04;13.30;;;7.33;;
289;SDS011;13193;48.874;9.086;2022-11-11T11:09:46;23.47;;;7.80;;
289;SDS011;13193;48.874;9.086;2022-11-11T11:15:00;13.07;;;8.00;;
289;SDS011;13193;48.874;9.086;2022-11-11T11:17:33;15.53;;;8.93;;
289;SDS011;13193;48.874;9.086;2022-11-11T11:20:07;19.67;;;8.90;;
289;SDS011;13193;48.874;9.086;2022-11-11T11:22:51;15.00;;;8.10;;
289;SDS011;13193;48.874;9.086;2022-11-11T11:25:20;15.87;;;7.47;;
289;SDS011;13193;48.874;9.086;2022-11-11T11:27:49;15.33;;;6.73;;
289;SDS011;13193;48.874;9.086;2022-11-11T11:30:21;14.63;;;8.00;;
289;SDS011;13193;48.874;9.086;2022-11-11T11:32:58;18.67;;;8.67;;
289;SDS011;13193;48.874;9.086;2022-11-11T11:35:41;19.00;;;7.00;;
289;SDS011;13193;48.874;9.086;2022-11-11T11:38:09;11.80;;;8.00;;
289;SDS011;13193;48.874;9.086;2022-11-11T11:40:52;14.00;;;7.73;;
289;SDS011;13193;48.874;9.086;2022-11-11T11:43:23;13.17;;;7.43;;
289;SDS011;13193;48.874;9.086;2022-11-11T11:45:55;14.17;;;8.03;;
289;SDS011;13193;48.874;9.086;2022-11-11T11:54:02;10.20;;;6.73;;
289;SDS011;13193;48.874;9.086;2022-11-11T12:07:47;15.60;;;8.30;;
289;SDS011;13193;48.874;9.086;2022-11-11T12:10:28;24.80;;;10.93;;
289;SDS011;13193;48.874;9.086;2022-11-11T12:21:14;18.30;;;9.83;;
289;SDS011;13193;48.874;9.086;2022-11-11T12:34:27;8.80;;;5.27;;
289;SDS011;13193;48.874;9.086;2022-11-11T12:37:30;11.63;;;5.57;;
289;SDS011;13193;48.874;9.086;2022-11-11T12:40:16;11.30;;;5.20;;
289;SDS011;13193;48.874;9.086;2022-11-11T12:43:42;9.93;;;4.87;;
289;SDS011;13193;48.874;9.086;2022-11-11T12:45:59;13.83;;;6.20;;
289;SDS011;13193;48.874;9.086;2022-11-11T12:57:04;10.90;;;5.60;;
289;SDS011;13193;48.874;9.086;2022-11-11T13:02:15;12.03;;;5.60;;
289;SDS011;13193;48.874;9.086;2022-11-11T13:05:12;17.20;;;6.00;;
289;SDS011;13193;48.874;9.086;2022-11-11T13:13:31;11.00;;;7.13;;
289;SDS011;13193;48.874;9.086;2022-11-11T13:16:18;11.57;;;5.43;;
289;SDS011;13193;48.874;9.086;2022-11-11T13:18:48;12.80;;;5.40;;
289;SDS011;13193;48.874;9.086;2022-11-11T13:21:35;10.47;;;4.63;;
289;SDS011;13193;48.874;9.086;2022-11-11T13:24:23;11.50;;;6.00;;
289;SDS011;13193;48.874;9.086;2022-11-11T13:26:56;10.33;;;5.10;;
289;SDS011;13193;48.874;9.086;2022-11-11T13:32:02;14.90;;;5.80;;
289;SDS011;13193;48.874;9.086;2022-11-11T13:34:30;20.33;;;5.70;;
289;SDS011;13193;48.874;9.086;2022-11-11T13:36:58;11.50;;;4.90;;
289;SDS011;13193;48.874;9.086;2022-11-11T13:39:33;13.57;;;5.20;;
289;SDS011;13193;48.874;9.086;2022-11-11T13:42:04;7.40;;;4.80;;
289;SDS011;13193;48.874;9.086;2022-11-11T13:44:35;13.33;;;6.10;;
289;SDS011;13193;48.874;9.086;2022-11-11T13:47:19;11.53;;;5.40;;
289;SDS011;13193;48.874;9.086;2022-11-11T13:49:53;7.30;;;5.20;;
289;SDS011;13193;48.874;9.086;2022-11-11T13:52:33;8.20;;;4.87;;
289;SDS011;13193;48.874;9.086;2022-11-11T13:55:02;10.93;;;4.53;;
289;SDS011;13193;48.874;9.086;2022-11-11T13:57:49;15.60;;;6.37;;
289;SDS011;13193;48.874;9.086;2022-11-11T14:02:42;8.87;;;4.93;;
289;SDS011;13193;48.874;9.086;2022-11-11T14:10:07;9.03;;;4.37;;
289;SDS011;13193;48.874;9.086;2022-11-11T14:12:38;11.00;;;6.07;;
289;SDS011;13193;48.874;9.086;2022-11-11T14:15:31;8.40;;;4.90;;
289;SDS011;13193;48.874;9.086;2022-11-11T14:17:57;9.90;;;5.13;;
289;SDS011;13193;48.874;9.086;2022-11-11T14:25:46;11.20;;;5.23;;
289;SDS011;13193;48.874;9.086;2022-11-11T14:28:20;9.00;;;4.83;;
289;SDS011;13193;48.874;9.086;2022-11-11T14:30:46;8.77;;;4.70;;
289;SDS011;13193;48.874;9.086;2022-11-11T14:33:22;9.87;;;4.97;;
289;SDS011;13193;48.874;9.086;2022-11-11T14:36:01;15.40;;;4.67;;
289;SDS011;13193;48.874;9.086;2022-11-11T14:41:49;16.00;;;4.17;;
289;SDS011;13193;48.874;9.086;2022-11-11T14:52:34;9.37;;;4.93;;
289;SDS011;13193;48.874;9.086;2022-11-11T14:57:40;15.33;;;5.77;;
289;SDS011;13193;48.874;9.086;2022-11-11T15:00:17;20.33;;;5.20;;
289;SDS011;13193;48.874;9.086;2022-11-11T15:02:53;11.53;;;5.17;;
289;SDS011;13193;48.874;9.086;2022-11-11T15:05:52;12.73;;;5.50;;
289;SDS011;13193;48.874;9.086;2022-11-11T15:08:29;13.90;;;4.80;;
289;SDS011;13193;48.874;9.086;2022-11-11T15:11:15;9.70;;;4.93;;
289;SDS011;13193;48.874;9.086;2022-11-11T15:21:43;16.00;;;4.50;;
289;SDS011;13193;48.874;9.086;2022-11-11T15:29:37;9.60;;;5.80;;
289;SDS011;13193;48.874;9.086;2022-11-11T15:35:04;14.13;;;4.77;;
289;SDS011;13193;48.874;9.086;2022-11-11T15:37:51;12.40;;;5.57;;
289;SDS011;13193;48.874;9.086;2022-11-11T15:40:19;14.47;;;4.83;;
289;SDS011;13193;48.874;9.086;2022-11-11T15:42:46;10.53;;;4.63;;
289;SDS011;13193;48.874;9.086;2022-11-11T15:45:23;13.97;;;6.80;;
289;SDS011;13193;48.874;9.086;2022-11-11T15:48:00;9.53;;;5.13;;
289;SDS011;13193;48.874;9.086;2022-11-11T15:50:32;22.10;;;5.20;;
289;SDS011;13193;48.874;9.086;2022-11-11T15:53:00;12.50;;;5.10;;
289;SDS011;13193;48.874;9.086;2022-11-11T15:55:28;11.50;;;4.87;;
289;SDS011;13193;48.874;9.086;2022-11-11T15:58:17;9.00;;;6.00;;
289;SDS011;13193;48.874;9.086;2022-11-11T16:00:42;14.80;;;5.10;;
289;SDS011;13193;48.874;9.086;2022-11-11T16:05:43;9.57;;;4.87;;
289;SDS011;13193;48.874;9.086;2022-11-11T16:08:09;16.40;;;6.03;;
289;SDS011;13193;48.874;9.086;2022-11-11T16:10:44;15.20;;;5.47;;
289;SDS011;13193;48.874;9.086;2022-11-11T16:18:45;17.67;;;6.13;;
289;SDS011;13193;48.874;9.086;2022-11-11T16:21:17;15.57;;;5.00;;
289;SDS011;13193;48.874;9.086;2022-11-11T16:23:46;14.80;;;6.90;;
289;SDS011;13193;48.874;9.086;2022-11-11T16:26:12;11.00;;;6.40;;
289;SDS011;13193;48.874;9.086;2022-11-11T16:28:43;17.13;;;6.20;;
289;SDS011;13193;48.874;9.086;2022-11-11T16:33:59;21.33;;;8.73;;
289;SDS011;13193;48.874;9.086;2022-11-11T16:36:25;27.40;;;10.70;;
289;SDS011;13193;48.874;9.086;2022-11-11T16:38:51;23.40;;;10.63;;
289;SDS011;13193;48.874;9.086;2022-11-11T16:41:27;20.53;;;8.80;;
289;SDS011;13193;48.874;9.086;2022-11-11T16:43:56;33.60;;;14.57;;
289;SDS011;13193;48.874;9.086;2022-11-11T16:48:59;74.93;;;26.80;;
289;SDS011;13193;48.874;9.086;2022-11-11T16:51:43;58.30;;;19.60;;
289;SDS011;13193;48.874;9.086;2022-11-11T16:54:17;44.83;;;18.10;;
289;SDS011;13193;48.874;9.086;2022-11-11T16:56:52;54.97;;;17.67;;
289;SDS011;13193;48.874;9.086;2022-11-11T16:59:25;63.50;;;22.70;;
289;SDS011;13193;48.874;9.086;2022-11-11T17:02:13;46.20;;;20.13;;
289;SDS011;13193;48.874;9.086;2022-11-11T17:07:33;24.37;;;11.33;;
289;SDS011;13193;48.874;9.086;2022-11-11T17:10:10;28.93;;;11.40;;
289;SDS011;13193;48.874;9.086;2022-11-11T17:12:38;22.40;;;10.20;;
289;SDS011;13193;48.874;9.086;2022-11-11T17:15:04;28.27;;;11.90;;
289;SDS011;13193;48.874;9.086;2022-11-11T17:17:32;28.47;;;13.47;;
289;SDS011;13193;48.874;9.086;2022-11-11T17:19:59;33.93;;;13.20;;
289;SDS011;13193;48.874;9.086;2022-11-11T17:22:30;46.60;;;21.57;;
289;SDS011;13193;48.874;9.086;2022-11-11T17:24:56;57.80;;;24.93;;
289;SDS011;13193;48.874;9.086;2022-11-11T17:27:21;53.23;;;22.70;;
289;SDS011;13193;48.874;9.086;2022-11-11T17:29:47;43.47;;;19.40;;
289;SDS011;13193;48.874;9.086;2022-11-11T17:32:13;30.07;;;16.03;;
289;SDS011;13193;48.874;9.086;2022-11-11T17:34:38;34.80;;;16.80;;
289;SDS011;13193;48.874;9.086;2022-11-11T17:37:04;34.80;;;18.30;;
289;SDS011;13193;48.874;9.086;2022-11-11T17:39:30;32.20;;;16.97;;
289;SDS011;13193;48.874;9.086;2022-11-11T17:41:55;42.87;;;17.87;;
289;SDS011;13193;48.874;9.086;2022-11-11T17:44:21;36.23;;;16.80;;
289;SDS011;13193;48.874;9.086;2022-11-11T17:46:46;41.03;;;20.73;;
289;SDS011;13193;48.874;9.086;2022-11-11T17:49:12;46.30;;;19.37;;
289;SDS011;13193;48.874;9.086;2022-11-11T17:51:39;38.27;;;15.57;;
289;SDS011;13193;48.874;9.086;2022-11-11T17:54:06;33.07;;;16.20;;
289;SDS011;13193;48.874;9.086;2022-11-11T17:56:33;34.83;;;15.80;;
289;SDS011;13193;48.874;9.086;2022-11-11T17:58:59;31.47;;;12.43;;